Terminal Aerodrome Forecast
Issued by NWS Albany, NY

Home | Current Version | Previous Version | Text Only | Print | Product List | Glossary On
Versions: 1 2 3 4 5 6 7 8 9 10 11 12 13 14 15 16 17 18 19 20 21
000
FTUS41 KALY 012300
TAFALB
TAF
KALB 012333Z 0200/0224 17008KT P6SM FEW050 BKN250
     FM020200 17005KT P6SM BKN070 BKN150
     FM020900 16004KT 6SM BR FEW008 BKN060
     FM021300 17006KT P6SM FEW015 BKN050
     FM021600 16008KT P6SM VCSH SCT035 BKN050=

USA.gov is the U.S. government's official web portal to all federal, state and local government web resources and services.